createdAt,value
2022-10-14T00:01:20.769Z,98.90
2022-10-14T00:03:49.247Z,99.00
2022-10-14T00:06:22.672Z,99.00
2022-10-14T00:08:50.762Z,99.00
2022-10-14T00:11:22.020Z,99.10
2022-10-14T00:13:52.301Z,99.10
2022-10-14T00:16:22.534Z,99.10
2022-10-14T00:18:51.102Z,99.10
2022-10-14T00:21:19.552Z,99.10
2022-10-14T00:23:48.023Z,99.20
2022-10-14T00:26:18.393Z,99.20
2022-10-14T00:28:46.628Z,99.30
2022-10-14T00:31:16.997Z,99.30
2022-10-14T00:33:48.664Z,99.40
2022-10-14T00:36:18.880Z,99.30
2022-10-14T00:38:48.928Z,99.10
2022-10-14T00:41:19.394Z,99.60
2022-10-14T00:43:58.291Z,99.50
2022-10-14T00:46:29.593Z,99.70
2022-10-14T00:49:05.181Z,99.60
2022-10-14T00:51:33.700Z,99.90
2022-10-14T00:54:02.153Z,99.90
2022-10-14T00:56:31.979Z,99.80
2022-10-14T00:59:01.747Z,99.90
2022-10-14T01:01:31.588Z,99.80
2022-10-14T01:03:59.589Z,99.70
2022-10-14T01:06:44.056Z,99.70
2022-10-14T01:09:25.463Z,99.90
2022-10-14T01:12:27.045Z,99.80
2022-10-14T01:14:59.968Z,99.70
2022-10-14T01:17:40.016Z,99.90
2022-10-14T01:20:52.561Z,99.90
2022-10-14T01:24:05.078Z,99.90
2022-10-14T01:26:57.834Z,99.90
2022-10-14T01:29:55.532Z,99.90
2022-10-14T01:32:29.016Z,99.90
2022-10-14T01:35:03.521Z,99.90
2022-10-14T01:37:35.269Z,99.90
2022-10-14T01:40:13.324Z,99.90
2022-10-14T01:42:43.662Z,99.90
2022-10-14T01:45:19.992Z,99.90
2022-10-14T01:47:51.341Z,99.90
2022-10-14T01:50:22.205Z,99.90
2022-10-14T01:52:53.994Z,99.90
2022-10-14T01:55:26.544Z,99.90
2022-10-14T01:57:58.203Z,99.90
2022-10-14T02:00:26.761Z,99.90
2022-10-14T02:02:56.231Z,99.90
2022-10-14T02:05:30.804Z,99.90
2022-10-14T02:08:04.600Z,99.90
2022-10-14T02:10:42.764Z,99.90
2022-10-14T02:13:29.277Z,99.90
2022-10-14T02:16:02.555Z,99.90
2022-10-14T02:18:41.174Z,99.90
2022-10-14T02:21:17.125Z,99.90
2022-10-14T02:23:49.507Z,99.90
2022-10-14T02:26:18.371Z,99.90
2022-10-14T02:28:48.689Z,99.90
2022-10-14T02:31:19.421Z,99.90
2022-10-14T02:33:52.914Z,99.90
2022-10-14T02:36:24.171Z,99.90
2022-10-14T02:38:54.443Z,99.90
2022-10-14T02:41:26.022Z,99.90
2022-10-14T02:43:54.116Z,99.90
2022-10-14T02:46:22.898Z,99.90
2022-10-14T02:48:52.388Z,99.90
2022-10-14T02:51:20.704Z,99.90
2022-10-14T02:53:48.744Z,99.90
2022-10-14T02:56:18.646Z,99.90
2022-10-14T02:58:46.722Z,99.90
2022-10-14T03:01:14.749Z,99.90
2022-10-14T03:03:43.133Z,99.90
2022-10-14T03:06:12.646Z,99.90
2022-10-14T03:08:41.927Z,99.90
2022-10-14T03:11:10.451Z,99.90
2022-10-14T03:13:39.267Z,99.90
2022-10-14T03:16:07.938Z,99.90
2022-10-14T03:18:40.991Z,99.90
2022-10-14T03:21:21.259Z,99.90
2022-10-14T03:23:50.562Z,99.90
2022-10-14T03:26:23.876Z,99.90
2022-10-14T03:28:52.935Z,99.90
2022-10-14T03:31:24.968Z,99.90
2022-10-14T03:34:28.099Z,99.90
2022-10-14T03:37:07.799Z,99.90
2022-10-14T03:39:43.564Z,99.90
2022-10-14T03:42:12.632Z,99.90
2022-10-14T03:44:46.232Z,99.90
2022-10-14T03:47:18.861Z,99.90
2022-10-14T03:49:47.876Z,99.90
2022-10-14T03:52:46.589Z,99.90
2022-10-14T03:55:24.603Z,99.90
2022-10-14T03:57:53.622Z,99.90
2022-10-14T04:00:22.151Z,99.90
2022-10-14T04:03:00.489Z,99.90
2022-10-14T04:05:39.279Z,99.90
2022-10-14T04:08:14.305Z,99.90
2022-10-14T04:10:53.368Z,99.90
2022-10-14T04:13:21.984Z,99.90
2022-10-14T04:15:50.025Z,99.90
2022-10-14T04:18:28.586Z,99.90
2022-10-14T04:21:01.911Z,99.90
2022-10-14T04:23:31.964Z,99.90
2022-10-14T04:26:08.168Z,99.90
2022-10-14T04:28:38.697Z,99.90
2022-10-14T04:31:13.473Z,99.90
2022-10-14T04:33:59.639Z,99.90
2022-10-14T04:36:32.891Z,99.90
2022-10-14T04:39:04.696Z,99.80
2022-10-14T04:41:32.830Z,99.90
2022-10-14T04:44:02.494Z,99.90
2022-10-14T04:46:46.460Z,99.90
2022-10-14T04:49:16.583Z,99.90
2022-10-14T04:51:52.912Z,99.80
2022-10-14T04:54:31.821Z,99.80
2022-10-14T04:57:01.648Z,99.80
2022-10-14T04:59:31.574Z,99.90
2022-10-14T05:02:18.895Z,99.90
2022-10-14T05:04:54.288Z,99.90
2022-10-14T05:07:22.930Z,99.90
2022-10-14T05:09:58.475Z,99.90
2022-10-14T05:12:35.885Z,99.90
2022-10-14T05:15:06.299Z,99.90
2022-10-14T05:17:45.669Z,99.90
2022-10-14T05:20:17.288Z,99.90
2022-10-14T05:22:49.523Z,99.90
2022-10-14T05:25:19.582Z,99.90
2022-10-14T05:27:48.326Z,99.90
2022-10-14T05:30:17.662Z,99.90
2022-10-14T05:32:50.203Z,99.90
2022-10-14T05:35:39.845Z,99.90
2022-10-14T05:38:08.926Z,99.90
2022-10-14T05:40:43.646Z,99.90
2022-10-14T05:43:12.133Z,99.90
2022-10-14T05:45:44.452Z,99.90
2022-10-14T05:48:13.010Z,99.90
2022-10-14T05:50:42.722Z,99.90
2022-10-14T05:53:14.336Z,99.90
2022-10-14T05:55:47.682Z,99.90
2022-10-14T05:58:16.089Z,99.90
2022-10-14T06:00:46.005Z,99.90
2022-10-14T06:03:18.820Z,99.90
2022-10-14T06:05:47.055Z,99.90
2022-10-14T06:08:16.314Z,99.90
2022-10-14T06:10:47.349Z,99.90
2022-10-14T06:13:15.489Z,99.90
2022-10-14T06:15:46.545Z,99.90
2022-10-14T06:18:14.882Z,99.90
2022-10-14T06:20:42.949Z,99.90
2022-10-14T06:23:11.071Z,99.90
2022-10-14T06:25:39.106Z,99.90
2022-10-14T06:28:08.642Z,99.90
2022-10-14T06:30:36.786Z,99.90
2022-10-14T06:33:04.935Z,99.90
2022-10-14T06:35:33.053Z,99.90
2022-10-14T06:38:01.176Z,99.90
2022-10-14T06:40:29.193Z,99.90
2022-10-14T06:42:59.277Z,99.90
2022-10-14T06:45:28.683Z,99.90
2022-10-14T06:47:58.479Z,99.90
2022-10-14T06:50:26.498Z,99.90
2022-10-14T06:52:54.601Z,99.90
2022-10-14T06:55:22.602Z,99.90
2022-10-14T06:57:50.830Z,99.90
2022-10-14T07:00:19.370Z,99.90
2022-10-14T07:02:48.732Z,99.90
2022-10-14T07:05:17.027Z,99.90
2022-10-14T07:07:45.128Z,99.90
2022-10-14T07:10:13.302Z,99.90
2022-10-14T07:12:41.469Z,99.90
2022-10-14T07:15:10.757Z,99.90
2022-10-14T07:17:39.579Z,99.90
2022-10-14T07:20:10.173Z,99.90
2022-10-14T07:22:39.045Z,99.90
2022-10-14T07:25:08.397Z,99.90
2022-10-14T07:27:37.106Z,99.90
2022-10-14T07:30:06.554Z,99.90
2022-10-14T07:32:37.732Z,99.90
2022-10-14T07:35:06.625Z,99.90
2022-10-14T07:37:36.082Z,99.90
2022-10-14T07:40:06.472Z,99.90
2022-10-14T07:42:35.524Z,99.90
2022-10-14T07:45:03.900Z,99.90
2022-10-14T07:47:33.159Z,99.90
2022-10-14T07:50:01.463Z,99.90
2022-10-14T07:52:29.520Z,99.90
2022-10-14T07:54:58.888Z,99.90
2022-10-14T07:57:27.690Z,99.90
2022-10-14T07:59:55.833Z,99.90
2022-10-14T08:02:24.168Z,99.90
2022-10-14T08:05:04.097Z,99.90
2022-10-14T08:07:41.432Z,99.90
2022-10-14T08:10:10.883Z,99.90
2022-10-14T08:12:38.974Z,99.90
2022-10-14T08:15:07.912Z,99.90
2022-10-14T08:17:36.114Z,99.90
2022-10-14T08:20:04.696Z,99.90
2022-10-14T08:22:32.687Z,99.90
2022-10-14T08:25:00.654Z,99.90
2022-10-14T08:27:30.019Z,99.90
2022-10-14T08:29:58.058Z,99.90
2022-10-14T08:32:26.068Z,99.90
2022-10-14T08:34:55.920Z,99.90
2022-10-14T08:37:24.278Z,99.90
2022-10-14T08:39:52.306Z,99.90
2022-10-14T08:42:34.490Z,99.90
2022-10-14T08:45:08.839Z,99.90
2022-10-14T08:47:38.569Z,99.90
2022-10-14T08:50:18.359Z,99.90
2022-10-14T08:52:51.486Z,99.90
2022-10-14T08:55:27.971Z,99.70
2022-10-14T08:58:01.090Z,99.70
2022-10-14T09:00:31.680Z,99.60
2022-10-14T09:03:03.303Z,99.40
2022-10-14T09:05:31.650Z,99.60
2022-10-14T09:08:01.494Z,99.70
2022-10-14T09:10:33.969Z,99.50
2022-10-14T09:13:10.983Z,99.60
2022-10-14T09:15:43.214Z,99.50
2022-10-14T09:18:24.085Z,99.30
2022-10-14T09:20:53.777Z,99.40
2022-10-14T09:23:25.327Z,99.30
2022-10-14T09:25:57.723Z,99.20
2022-10-14T09:28:34.706Z,99.00
2022-10-14T09:31:02.914Z,98.80
2022-10-14T09:33:31.481Z,98.60
2022-10-14T09:38:32.766Z,98.40
2022-10-14T09:41:01.690Z,98.10
2022-10-14T09:43:31.116Z,97.80
2022-10-14T09:46:02.134Z,97.40
2022-10-14T09:48:39.065Z,97.40
2022-10-14T09:51:10.034Z,97.30
2022-10-14T09:53:42.205Z,97.40
2022-10-14T09:56:11.401Z,97.20
2022-10-14T09:58:47.474Z,97.30
2022-10-14T10:03:46.015Z,96.70
2022-10-14T10:06:19.050Z,96.70
2022-10-14T10:08:57.489Z,96.60
2022-10-14T10:11:30.757Z,96.30
2022-10-14T10:14:00.580Z,96.40
2022-10-14T10:16:31.351Z,96.50
2022-10-14T10:19:19.820Z,96.30
2022-10-14T10:21:48.133Z,96.40
2022-10-14T10:24:25.919Z,96.00
2022-10-14T10:26:56.861Z,95.80
2022-10-14T10:29:35.472Z,95.70
2022-10-14T10:32:12.989Z,95.70
2022-10-14T10:34:57.317Z,95.60
2022-10-14T10:37:58.470Z,95.30
2022-10-14T10:40:35.753Z,95.20
2022-10-14T10:43:38.798Z,94.80
2022-10-14T10:46:18.982Z,94.70
2022-10-14T10:48:50.173Z,94.10
2022-10-14T10:51:26.641Z,94.10
2022-10-14T10:54:07.658Z,94.40
2022-10-14T10:56:42.504Z,94.10
2022-10-14T10:59:36.517Z,94.20
2022-10-14T11:02:45.957Z,94.30
2022-10-14T11:05:22.085Z,94.00
2022-10-14T11:08:14.777Z,93.80
2022-10-14T11:11:12.666Z,93.90
2022-10-14T11:13:48.141Z,94.60
2022-10-14T11:16:26.557Z,94.20
2022-10-14T11:19:03.107Z,94.20
2022-10-14T11:21:39.765Z,94.20
2022-10-14T11:26:59.348Z,94.30
2022-10-14T11:30:03.362Z,94.00
2022-10-14T11:32:39.908Z,93.80
2022-10-14T11:35:22.934Z,93.10
2022-10-14T11:38:02.096Z,93.40
2022-10-14T11:40:38.730Z,93.00
2022-10-14T11:43:19.912Z,92.30
2022-10-14T11:45:54.893Z,92.10
2022-10-14T11:48:44.517Z,91.40
2022-10-14T11:51:20.324Z,91.50
2022-10-14T11:53:59.513Z,91.60
2022-10-14T11:56:35.699Z,91.30
2022-10-14T11:59:10.521Z,91.30
2022-10-14T12:01:44.920Z,91.50
2022-10-14T12:04:25.376Z,91.60
2022-10-14T12:07:02.097Z,91.50
2022-10-14T12:09:39.133Z,90.70
2022-10-14T12:12:10.098Z,91.10
2022-10-14T12:14:40.969Z,90.70
2022-10-14T12:17:20.638Z,90.60
2022-10-14T12:19:49.727Z,90.20
2022-10-14T12:22:23.235Z,90.20
2022-10-14T12:24:54.614Z,90.00
2022-10-14T12:27:25.313Z,88.60
2022-10-14T12:29:55.190Z,87.90
2022-10-14T12:32:25.997Z,88.70
2022-10-14T12:34:55.286Z,86.50
2022-10-14T12:40:28.830Z,87.00
2022-10-14T12:43:03.534Z,87.20
2022-10-14T12:45:34.670Z,86.90
2022-10-14T12:48:12.912Z,85.70
2022-10-14T12:50:42.131Z,86.30
2022-10-14T12:53:22.588Z,84.70
2022-10-14T12:55:53.411Z,86.60
2022-10-14T12:58:29.424Z,85.90
2022-10-14T13:01:01.638Z,85.80
2022-10-14T13:03:34.017Z,85.70
2022-10-14T13:06:42.318Z,84.20
2022-10-14T13:09:36.427Z,85.10
2022-10-14T13:12:44.015Z,84.20
2022-10-14T13:15:34.150Z,85.00
2022-10-14T13:18:35.908Z,84.90
2022-10-14T13:21:05.708Z,84.10
2022-10-14T13:23:40.483Z,83.40
2022-10-14T13:26:23.070Z,83.70
2022-10-14T13:29:02.966Z,84.10
2022-10-14T13:31:38.562Z,82.80
2022-10-14T13:34:18.995Z,82.80
2022-10-14T13:37:01.897Z,82.40
2022-10-14T13:39:33.454Z,81.30
2022-10-14T13:42:03.759Z,81.90
2022-10-14T13:44:31.906Z,80.30
2022-10-14T13:47:04.694Z,79.70
2022-10-14T13:49:37.655Z,80.60
2022-10-14T13:52:08.130Z,81.10
2022-10-14T13:54:36.475Z,81.20
2022-10-14T13:57:38.286Z,81.50
2022-10-14T14:02:54.992Z,81.50
2022-10-14T14:05:26.662Z,82.00
2022-10-14T14:11:15.040Z,80.40
2022-10-14T14:13:55.818Z,79.90
2022-10-14T14:16:28.703Z,80.30
2022-10-14T14:19:07.969Z,79.40
2022-10-14T14:21:36.872Z,80.60
2022-10-14T14:24:16.361Z,80.00
2022-10-14T14:26:54.925Z,81.10
2022-10-14T14:29:29.053Z,81.30
2022-10-14T14:32:07.974Z,81.30
2022-10-14T14:34:39.840Z,82.10
2022-10-14T14:40:08.196Z,83.90
2022-10-14T14:42:39.632Z,84.80
2022-10-14T14:45:16.769Z,85.00
2022-10-14T14:47:45.719Z,85.50
2022-10-14T14:50:29.901Z,85.60
2022-10-14T14:53:02.983Z,85.60
2022-10-14T14:55:43.104Z,86.10
2022-10-14T14:58:28.251Z,86.70
2022-10-14T15:00:58.069Z,86.60
2022-10-14T15:03:28.069Z,86.20
2022-10-14T15:06:00.122Z,86.50
2022-10-14T15:08:34.809Z,87.00
2022-10-14T15:11:03.595Z,87.50
2022-10-14T15:13:44.534Z,87.70
2022-10-14T15:16:13.951Z,87.80
2022-10-14T15:18:43.594Z,87.60
2022-10-14T15:21:19.769Z,87.80
2022-10-14T15:24:03.185Z,88.00
2022-10-14T15:26:34.619Z,88.00
2022-10-14T15:29:14.571Z,88.50
2022-10-14T15:31:46.322Z,88.00
2022-10-14T15:34:20.323Z,87.80
2022-10-14T15:36:52.159Z,87.90
2022-10-14T15:39:20.560Z,88.60
2022-10-14T15:41:48.829Z,89.10
2022-10-14T15:44:16.917Z,88.90
2022-10-14T15:47:04.528Z,89.50
2022-10-14T15:49:37.358Z,90.00
2022-10-14T15:52:05.522Z,90.20
2022-10-14T15:54:33.580Z,90.40
2022-10-14T15:57:01.678Z,90.70
2022-10-14T15:59:29.653Z,91.00
2022-10-14T16:01:59.386Z,91.00
2022-10-14T16:04:28.038Z,91.20
2022-10-14T16:06:57.659Z,91.50
2022-10-14T16:09:27.612Z,91.80
2022-10-14T16:11:58.320Z,92.00
2022-10-14T16:14:27.062Z,92.20
2022-10-14T16:16:55.826Z,92.30
2022-10-14T16:19:26.721Z,92.50
2022-10-14T16:21:54.837Z,92.80
2022-10-14T16:24:25.466Z,93.10
2022-10-14T16:26:54.758Z,93.20
2022-10-14T16:29:22.840Z,93.40
2022-10-14T16:31:52.395Z,93.40
2022-10-14T16:34:22.346Z,93.70
2022-10-14T16:36:52.616Z,93.90
2022-10-14T16:39:21.052Z,94.00
2022-10-14T16:41:49.722Z,94.00
2022-10-14T16:44:27.524Z,94.00
2022-10-14T16:47:15.003Z,94.20
2022-10-14T16:49:45.072Z,94.50
2022-10-14T16:52:18.056Z,94.70
2022-10-14T16:54:46.212Z,94.80
2022-10-14T16:57:14.475Z,94.90
2022-10-14T16:59:42.703Z,94.70
2022-10-14T17:02:15.257Z,95.30
2022-10-14T17:04:46.290Z,95.20
2022-10-14T17:07:16.691Z,95.20
2022-10-14T17:09:46.108Z,95.30
2022-10-14T17:12:14.469Z,95.30
2022-10-14T17:14:42.953Z,95.20
2022-10-14T17:17:12.375Z,95.30
2022-10-14T17:19:40.377Z,95.20
2022-10-14T17:22:08.463Z,95.60
2022-10-14T17:24:36.451Z,95.60
2022-10-14T17:27:11.709Z,95.70
2022-10-14T17:29:40.053Z,95.90
2022-10-14T17:32:08.355Z,95.90
2022-10-14T17:34:36.388Z,96.00
2022-10-14T17:39:41.234Z,95.90
2022-10-14T17:42:09.222Z,95.90
2022-10-14T17:44:43.414Z,96.00
2022-10-14T17:47:12.157Z,96.20
2022-10-14T17:49:40.447Z,96.20
2022-10-14T17:52:08.442Z,96.30
2022-10-14T17:54:36.450Z,96.50
2022-10-14T17:57:04.611Z,96.40
2022-10-14T17:59:32.788Z,96.40
2022-10-14T18:02:26.692Z,96.40
2022-10-14T18:04:55.019Z,96.40
2022-10-14T18:07:23.316Z,96.50
2022-10-14T18:09:51.636Z,96.40
2022-10-14T18:12:20.199Z,96.40
2022-10-14T18:14:48.566Z,96.60
2022-10-14T18:17:18.166Z,96.50
2022-10-14T18:19:51.218Z,96.50
2022-10-14T18:22:20.217Z,96.60
2022-10-14T18:24:48.343Z,96.70
2022-10-14T18:27:16.410Z,96.90
2022-10-14T18:29:44.383Z,96.90
2022-10-14T18:32:12.439Z,96.90
2022-10-14T18:34:41.786Z,96.90
2022-10-14T18:37:09.938Z,96.90
2022-10-14T18:39:37.965Z,97.10
2022-10-14T18:42:05.987Z,97.00
2022-10-14T18:44:33.999Z,97.00
2022-10-14T18:47:01.987Z,97.00
2022-10-14T18:49:30.120Z,97.10
2022-10-14T18:51:59.492Z,97.00
2022-10-14T18:54:28.126Z,97.00
2022-10-14T18:56:56.173Z,97.00
2022-10-14T18:59:24.932Z,97.10
2022-10-14T19:01:54.083Z,97.10
2022-10-14T19:04:24.738Z,97.20
2022-10-14T19:06:52.723Z,97.10
2022-10-14T19:09:28.806Z,97.30
2022-10-14T19:11:58.896Z,97.00
2022-10-14T19:14:28.566Z,97.00
2022-10-14T19:16:56.757Z,97.10
2022-10-14T19:19:25.427Z,97.20
2022-10-14T19:21:54.414Z,97.10
2022-10-14T19:24:24.156Z,97.20
2022-10-14T19:26:54.217Z,97.20
2022-10-14T19:29:22.505Z,97.20
2022-10-14T19:31:51.613Z,97.30
2022-10-14T19:34:19.680Z,97.30
2022-10-14T19:36:47.675Z,97.50
2022-10-14T19:39:18.835Z,97.40
2022-10-14T19:41:48.431Z,97.50
2022-10-14T19:44:17.799Z,97.40
2022-10-14T19:46:46.662Z,97.30
2022-10-14T19:49:16.621Z,97.30
2022-10-14T19:51:45.113Z,97.20
2022-10-14T19:54:13.900Z,97.10
2022-10-14T19:56:42.373Z,97.30
2022-10-14T19:59:13.435Z,97.40
2022-10-14T20:01:41.940Z,97.40
2022-10-14T20:04:10.189Z,97.50
2022-10-14T20:06:40.111Z,97.50
2022-10-14T20:09:09.628Z,97.50
2022-10-14T20:11:37.735Z,97.40
2022-10-14T20:14:05.826Z,97.40
2022-10-14T20:16:35.680Z,97.40
2022-10-14T20:19:03.828Z,97.40
2022-10-14T20:21:32.007Z,97.40
2022-10-14T20:24:00.495Z,97.40
2022-10-14T20:26:29.145Z,97.40
2022-10-14T20:28:57.221Z,97.60
2022-10-14T20:31:26.275Z,97.50
2022-10-14T20:33:57.523Z,97.60
2022-10-14T20:36:25.667Z,97.70
2022-10-14T20:38:53.740Z,97.60
2022-10-14T20:41:23.530Z,97.60
2022-10-14T20:43:52.724Z,97.70
2022-10-14T20:46:21.918Z,97.70
2022-10-14T20:48:53.770Z,97.80
2022-10-14T20:51:23.683Z,97.80
2022-10-14T20:53:58.564Z,97.90
2022-10-14T20:56:31.257Z,98.00
2022-10-14T20:59:00.781Z,98.10
2022-10-14T21:01:30.606Z,98.00
2022-10-14T21:04:01.607Z,98.10
2022-10-14T21:06:31.400Z,98.20
2022-10-14T21:09:00.010Z,98.50
2022-10-14T21:11:28.895Z,98.40
2022-10-14T21:13:59.115Z,98.40
2022-10-14T21:16:28.704Z,98.50
2022-10-14T21:18:58.633Z,98.40
2022-10-14T21:21:28.402Z,98.40
2022-10-14T21:23:58.125Z,98.50
2022-10-14T21:26:27.068Z,98.40
2022-10-14T21:28:55.125Z,98.50
2022-10-14T21:31:23.765Z,98.60
2022-10-14T21:33:59.912Z,98.60
2022-10-14T21:36:30.922Z,98.80
2022-10-14T21:39:01.173Z,98.60
2022-10-14T21:41:29.593Z,98.50
2022-10-14T21:43:59.410Z,98.40
2022-10-14T21:46:28.462Z,98.50
2022-10-14T21:48:58.765Z,98.60
2022-10-14T21:51:30.351Z,98.70
2022-10-14T21:54:00.270Z,98.90
2022-10-14T21:56:30.031Z,98.90
2022-10-14T21:58:58.639Z,98.90
2022-10-14T22:01:28.490Z,98.90
2022-10-14T22:03:58.047Z,98.90
2022-10-14T22:06:27.836Z,99.00
2022-10-14T22:08:57.503Z,99.00
2022-10-14T22:11:29.556Z,99.00
2022-10-14T22:13:59.256Z,99.00
2022-10-14T22:16:28.983Z,99.00
2022-10-14T22:18:59.620Z,99.00
2022-10-14T22:21:29.496Z,99.00
2022-10-14T22:23:58.616Z,99.10
2022-10-14T22:26:29.839Z,99.10
2022-10-14T22:29:00.071Z,99.20
2022-10-14T22:31:29.783Z,99.20
2022-10-14T22:33:58.964Z,99.40
2022-10-14T22:36:29.797Z,99.10
2022-10-14T22:38:59.509Z,99.20
2022-10-14T22:41:34.957Z,99.40
2022-10-14T22:44:04.284Z,99.40
2022-10-14T22:46:34.482Z,99.30
2022-10-14T22:49:03.413Z,99.40
2022-10-14T22:51:32.953Z,99.40
2022-10-14T22:54:02.154Z,99.40
2022-10-14T22:56:32.307Z,99.50
2022-10-14T22:59:02.061Z,99.60
2022-10-14T23:01:30.615Z,99.50
2022-10-14T23:04:00.425Z,99.50
2022-10-14T23:06:31.229Z,99.50
2022-10-14T23:09:00.940Z,99.50
2022-10-14T23:11:32.071Z,99.60
2022-10-14T23:14:02.880Z,99.70
2022-10-14T23:16:34.558Z,99.50
2022-10-14T23:19:02.677Z,99.40
2022-10-14T23:21:32.390Z,99.60
2022-10-14T23:24:02.139Z,99.80
2022-10-14T23:26:34.549Z,99.90
2022-10-14T23:29:05.022Z,99.60
2022-10-14T23:31:35.603Z,99.40
2022-10-14T23:34:06.424Z,99.40
2022-10-14T23:36:34.846Z,99.20
2022-10-14T23:39:02.851Z,99.50
2022-10-14T23:41:32.279Z,99.50
2022-10-14T23:44:00.343Z,99.60
2022-10-14T23:46:28.477Z,99.80
2022-10-14T23:49:06.719Z,99.90
2022-10-14T23:51:42.378Z,99.90
2022-10-14T23:54:10.453Z,99.90
2022-10-14T23:56:40.036Z,99.90
2022-10-14T23:59:08.070Z,99.90
